Time;durP1;ratioP1;P1;durP2;ratioP2;P2;SDS_P1;SDS_P2;PMS_P1;PMS_P2;Temp;Humidity;BMP_temperature;BMP_pressure;BME280_temperature;BME280_humidity;BME280_pressure;Samples;Min_cycle;Max_cycle;Signal;HPM_P1;HPM_P2
2022/01/25 00:08:54;;;;;;;19.20;12.85;;;3.50;99.90;;;;;;7175020;32;20446;-59
2022/01/25 00:26:17;;;;;;;18.40;14.38;;;3.60;99.90;;;;;;7173956;32;20562;-60
2022/01/25 00:30:41;;;;;;;19.42;14.07;;;3.60;99.90;;;;;;7171190;32;20566;-60
2022/01/25 00:34:44;;;;;;;22.67;14.23;;;3.50;99.90;;;;;;7159764;33;20504;-60
2022/01/25 00:38:46;;;;;;;23.12;15.52;;;3.50;99.90;;;;;;7170751;33;20513;-60
2022/01/25 00:42:47;;;;;;;20.42;15.93;;;3.50;99.90;;;;;;7172866;33;20519;-60
2022/01/25 00:46:49;;;;;;;21.67;16.05;;;3.50;99.90;;;;;;7174251;33;20132;-60
2022/01/25 00:50:50;;;;;;;21.15;15.30;;;3.50;99.90;;;;;;7171164;33;20109;-60
2022/01/25 00:54:53;;;;;;;23.08;15.80;;;3.50;99.90;;;;;;7170443;33;20803;-60
2022/01/25 00:58:56;;;;;;;24.08;14.90;;;3.50;99.90;;;;;;7176568;33;20223;-60
2022/01/25 01:02:57;;;;;;;20.20;15.07;;;3.50;99.90;;;;;;7176646;33;20132;-60
2022/01/25 01:07:02;;;;;;;20.83;14.63;;;3.60;99.90;;;;;;7179720;32;20106;-60
2022/01/25 01:11:08;;;;;;;22.23;15.07;;;3.50;99.90;;;;;;7178982;32;20518;-59
2022/01/25 01:37:00;;;;;;;22.90;17.02;;;3.40;99.90;;;;;;7176554;32;20515;-60
2022/01/25 01:45:32;;;;;;;26.52;17.25;;;3.50;99.90;;;;;;7171494;32;20474;-60
2022/01/25 01:49:43;;;;;;;24.35;17.95;;;3.50;99.90;;;;;;7174372;32;20608;-60
2022/01/25 01:53:45;;;;;;;26.15;18.48;;;3.40;99.90;;;;;;7171446;32;20227;-61
2022/01/25 01:57:49;;;;;;;25.50;18.20;;;3.50;99.90;;;;;;7177967;32;20109;-60
2022/01/25 02:01:50;;;;;;;29.95;19.48;;;3.50;99.90;;;;;;7174296;32;20768;-60
2022/01/25 02:05:52;;;;;;;28.83;20.25;;;3.50;99.90;;;;;;7176397;32;20219;-60
2022/01/25 02:09:54;;;;;;;30.23;20.90;;;3.30;99.90;;;;;;7175674;32;20110;-60
2022/01/25 02:14:02;;;;;;;27.42;19.98;;;3.30;99.90;;;;;;7178438;32;20204;-59
2022/01/25 02:22:30;;;;;;;27.70;18.60;;;3.30;99.90;;;;;;7174647;32;20228;-60
2022/01/25 02:26:32;;;;;;;24.00;16.33;;;3.30;99.90;;;;;;7173405;32;20106;-60
2022/01/25 02:30:33;;;;;;;23.90;16.17;;;3.30;99.90;;;;;;7172590;32;20189;-61
2022/01/25 02:34:35;;;;;;;28.58;16.83;;;3.20;99.90;;;;;;7178143;32;20201;-60
2022/01/25 02:38:38;;;;;;;25.88;17.17;;;3.20;99.90;;;;;;7179473;32;20109;-60
2022/01/25 02:42:39;;;;;;;26.90;18.00;;;3.30;99.90;;;;;;7179359;32;20109;-60
2022/01/25 02:50:43;;;;;;;21.50;15.13;;;3.30;99.90;;;;;;7172496;32;20590;-60
2022/01/25 02:54:45;;;;;;;23.70;16.15;;;3.30;99.90;;;;;;7176711;32;20121;-60
2022/01/25 02:58:48;;;;;;;24.92;15.95;;;3.30;99.90;;;;;;7174964;32;20242;-61
2022/01/25 03:02:50;;;;;;;24.30;16.27;;;3.30;99.90;;;;;;7174187;32;20106;-59
2022/01/25 03:06:52;;;;;;;23.15;16.62;;;3.30;99.90;;;;;;7167815;32;20110;-60
2022/01/25 03:10:54;;;;;;;22.70;16.00;;;3.30;99.90;;;;;;7174554;32;20132;-60
2022/01/25 03:15:22;;;;;;;24.17;17.33;;;3.30;99.90;;;;;;7168040;32;20641;-59
2022/01/25 03:23:34;;;;;;;24.80;16.60;;;3.30;99.90;;;;;;7173815;32;20110;-58
2022/01/25 03:27:35;;;;;;;23.30;15.90;;;3.40;99.90;;;;;;7171174;32;20196;-59
2022/01/25 03:31:37;;;;;;;26.85;16.35;;;3.40;99.90;;;;;;7173339;32;20203;-59
2022/01/25 03:35:39;;;;;;;23.87;16.17;;;3.30;99.90;;;;;;7176033;32;20132;-59
2022/01/25 03:39:41;;;;;;;22.83;15.98;;;3.30;99.90;;;;;;7175300;32;20129;-59
2022/01/25 03:43:50;;;;;;;26.52;17.05;;;3.30;99.90;;;;;;7168616;32;20477;-59
2022/01/25 03:52:13;;;;;;;24.37;16.10;;;3.10;99.90;;;;;;7167626;32;20291;-59
2022/01/25 03:56:15;;;;;;;24.02;16.60;;;3.10;99.90;;;;;;7167753;32;20435;-58
2022/01/25 04:00:17;;;;;;;23.77;15.40;;;3.10;99.90;;;;;;7168545;32;20109;-59
2022/01/25 04:04:23;;;;;;;28.17;16.45;;;3.20;99.90;;;;;;7170820;32;20113;-59
2022/01/25 04:08:25;;;;;;;25.85;15.90;;;3.20;99.90;;;;;;7169038;32;20110;-59
2022/01/25 04:12:26;;;;;;;25.15;15.77;;;3.10;99.90;;;;;;7168616;32;20136;-59
2022/01/25 04:16:34;;;;;;;23.45;15.88;;;3.10;99.90;;;;;;7167897;32;20861;-58
2022/01/25 04:20:35;;;;;;;23.62;15.32;;;3.20;99.90;;;;;;7167392;32;20617;-59
2022/01/25 04:28:44;;;;;;;;;;;3.30;99.90;;;;;;7169302;32;20113;-59
2022/01/25 04:32:49;;;;;;;27.58;16.48;;;3.30;99.90;;;;;;7171256;32;20836;-59
2022/01/25 04:49:55;;;;;;;29.60;17.52;;;3.40;99.90;;;;;;7167927;33;20114;-59
2022/01/25 04:54:08;;;;;;;30.50;17.62;;;3.50;99.90;;;;;;7174158;33;20125;-59
2022/01/25 04:58:17;;;;;;;27.67;17.40;;;3.50;99.90;;;;;;7168768;33;20136;-58
2022/01/25 05:02:33;;;;;;;27.92;17.45;;;3.40;99.90;;;;;;7178637;33;20639;-59
2022/01/25 05:06:35;;;;;;;29.40;18.12;;;3.40;99.90;;;;;;7169766;33;20229;-59
2022/01/25 05:10:48;;;;;;;26.62;16.77;;;3.30;99.90;;;;;;7170331;33;20101;-59
2022/01/25 05:14:59;;;;;;;31.45;18.42;;;3.40;99.90;;;;;;7151667;33;20485;-59
2022/01/25 05:23:11;;;;;;;30.20;19.02;;;3.40;99.90;;;;;;7171827;33;20454;-59
2022/01/25 05:27:15;;;;;;;32.30;19.77;;;3.40;99.90;;;;;;7175328;33;20136;-58
2022/01/25 05:31:16;;;;;;;33.88;20.33;;;3.30;99.90;;;;;;7167318;33;20617;-58
2022/01/25 05:35:19;;;;;;;28.55;18.37;;;3.20;99.90;;;;;;7170029;33;20180;-59
2022/01/25 05:39:26;;;;;;;31.45;18.90;;;3.20;99.90;;;;;;7170234;33;20132;-58
2022/01/25 05:47:34;;;;;;;32.42;18.33;;;3.30;99.90;;;;;;7171773;33;20219;-59
2022/01/25 05:51:35;;;;;;;30.73;18.83;;;3.40;99.90;;;;;;7179486;32;20129;-60
2022/01/25 05:55:37;;;;;;;29.48;18.45;;;3.40;99.90;;;;;;7177701;32;20133;-59
2022/01/25 05:59:39;;;;;;;31.37;19.55;;;3.40;99.90;;;;;;7171811;32;20118;-59
2022/01/25 06:03:42;;;;;;;32.33;20.55;;;3.40;99.90;;;;;;7174907;32;20148;-59
2022/01/25 06:07:44;;;;;;;29.85;19.20;;;3.40;99.90;;;;;;7177138;32;20212;-59
2022/01/25 06:11:45;;;;;;;32.90;19.00;;;3.20;99.90;;;;;;7173491;32;20600;-59
2022/01/25 06:15:47;;;;;;;28.60;18.92;;;3.20;99.90;;;;;;7176832;32;20230;-59
2022/01/25 06:19:49;;;;;;;32.95;20.20;;;3.10;99.90;;;;;;7177378;32;20113;-60
2022/01/25 06:23:50;;;;;;;28.98;19.30;;;3.10;99.90;;;;;;7174507;32;20129;-59
2022/01/25 06:27:52;;;;;;;32.10;20.33;;;3.10;99.90;;;;;;7173543;32;20109;-59
2022/01/25 06:31:54;;;;;;;36.00;21.23;;;3.20;99.90;;;;;;7177957;32;20469;-59
2022/01/25 06:35:56;;;;;;;32.22;20.05;;;3.30;99.90;;;;;;7175831;32;20196;-60
2022/01/25 06:39:58;;;;;;;33.53;20.62;;;3.40;99.90;;;;;;7175154;32;20481;-60
2022/01/25 06:44:00;;;;;;;33.88;19.52;;;3.20;99.90;;;;;;7170737;32;20142;-58
2022/01/25 06:48:02;;;;;;;31.62;20.12;;;3.10;99.90;;;;;;7173360;32;20117;-58
2022/01/25 06:52:04;;;;;;;31.27;18.20;;;3.10;99.90;;;;;;7162653;33;20564;-59
2022/01/25 06:56:06;;;;;;;29.37;18.62;;;3.10;99.90;;;;;;7177362;33;20876;-59
2022/01/25 07:00:14;;;;;;;30.73;20.40;;;3.10;99.90;;;;;;7177197;33;20796;-59
2022/01/25 07:04:16;;;;;;;32.42;19.48;;;3.10;99.90;;;;;;7174978;32;20160;-60
2022/01/25 07:08:19;;;;;;;29.42;19.15;;;3.10;99.90;;;;;;7174877;33;20238;-59
2022/01/25 07:12:26;;;;;;;31.35;19.95;;;3.00;99.90;;;;;;7174194;32;20605;-59
2022/01/25 07:16:28;;;;;;;30.90;19.70;;;3.00;99.90;;;;;;7170338;33;20193;-59
2022/01/25 07:20:30;;;;;;;33.25;19.90;;;2.90;99.90;;;;;;7172516;32;20712;-59
2022/01/25 07:24:32;;;;;;;33.72;20.62;;;2.80;99.90;;;;;;7164042;33;20136;-59
2022/01/25 07:28:34;;;;;;;32.65;19.35;;;2.80;99.90;;;;;;7171346;33;20585;-59
2022/01/25 07:32:36;;;;;;;29.95;19.87;;;2.90;99.90;;;;;;7177150;33;20129;-59
2022/01/25 07:36:41;;;;;;;31.12;18.77;;;2.80;99.90;;;;;;7176613;33;20117;-59
2022/01/25 07:40:44;;;;;;;29.92;18.60;;;2.90;99.90;;;;;;7164162;33;20727;-59
2022/01/25 07:44:48;;;;;;;31.62;19.33;;;2.90;99.90;;;;;;7172435;33;20224;-59
2022/01/25 07:48:56;;;;;;;28.12;18.67;;;3.00;99.90;;;;;;7177266;33;20585;-58
2022/01/25 07:53:01;;;;;;;27.58;16.85;;;2.90;99.90;;;;;;7175555;33;20102;-58
2022/01/25 07:57:03;;;;;;;28.90;18.90;;;3.00;99.90;;;;;;7174046;33;20109;-59
2022/01/25 08:01:05;;;;;;;26.45;18.12;;;3.00;99.90;;;;;;7172904;33;20136;-58
2022/01/25 08:05:07;;;;;;;28.40;17.23;;;3.00;99.90;;;;;;7175416;33;20208;-60
2022/01/25 08:09:16;;;;;;;29.08;18.50;;;3.00;99.90;;;;;;7176912;33;20699;-59
2022/01/25 08:13:22;;;;;;;32.13;18.67;;;3.00;99.90;;;;;;7176816;33;20330;-61
2022/01/25 08:17:26;;;;;;;28.02;18.37;;;3.00;99.90;;;;;;7169141;33;20544;-58
2022/01/25 08:21:45;;;;;;;28.23;17.80;;;3.00;99.90;;;;;;7169969;33;20186;-58
2022/01/25 08:26:00;;;;;;;34.28;18.10;;;3.10;99.90;;;;;;7170410;32;20180;-59
2022/01/25 08:30:10;;;;;;;32.58;20.55;;;3.10;99.90;;;;;;7169773;33;20184;-59
2022/01/25 08:34:12;;;;;;;30.83;19.17;;;3.10;99.90;;;;;;7169175;32;20136;-59
2022/01/25 08:38:14;;;;;;;32.97;19.40;;;3.10;99.90;;;;;;7172033;33;20566;-59
2022/01/25 08:42:19;;;;;;;42.10;21.95;;;3.00;99.90;;;;;;7171553;33;20124;-60
2022/01/25 08:46:25;;;;;;;38.78;21.87;;;3.00;99.90;;;;;;7171225;33;20121;-59
2022/01/25 08:50:41;;;;;;;30.90;19.42;;;3.10;99.90;;;;;;7162400;33;20159;-60
2022/01/25 08:54:43;;;;;;;33.85;20.50;;;3.10;99.90;;;;;;7172186;33;20106;-58
2022/01/25 08:58:45;;;;;;;34.75;19.77;;;3.10;99.90;;;;;;7173748;33;20249;-59
2022/01/25 09:02:46;;;;;;;35.75;21.17;;;3.00;99.90;;;;;;7167160;33;20156;-59
2022/01/25 09:06:48;;;;;;;34.17;19.27;;;3.10;99.90;;;;;;7168284;33;20129;-58
2022/01/25 09:10:53;;;;;;;38.35;21.52;;;3.10;99.90;;;;;;7166856;33;20110;-58
2022/01/25 09:14:54;;;;;;;36.92;21.00;;;3.20;99.90;;;;;;7171331;33;20129;-59
2022/01/25 09:18:56;;;;;;;35.70;19.67;;;3.10;99.90;;;;;;7166502;33;20481;-58
2022/01/25 09:22:58;;;;;;;33.67;21.25;;;3.00;99.90;;;;;;7168933;33;20206;-58
2022/01/25 09:27:05;;;;;;;38.15;22.15;;;3.00;99.90;;;;;;7172759;33;20125;-59
2022/01/25 09:31:07;;;;;;;33.15;19.87;;;2.90;99.90;;;;;;7171308;33;20205;-59
2022/01/25 09:35:09;;;;;;;38.20;20.75;;;3.00;99.90;;;;;;7173122;33;20486;-59
2022/01/25 09:39:11;;;;;;;38.75;21.73;;;3.10;99.90;;;;;;7172978;33;20118;-59
2022/01/25 09:43:13;;;;;;;36.30;20.95;;;3.20;99.90;;;;;;7176347;33;20122;-58
2022/01/25 09:47:14;;;;;;;33.38;18.60;;;3.30;99.90;;;;;;7173343;33;20817;-58
2022/01/25 09:51:18;;;;;;;32.30;18.65;;;3.40;99.90;;;;;;7171846;33;20212;-59
2022/01/25 09:55:25;;;;;;;31.75;19.75;;;3.30;99.90;;;;;;7176967;33;20128;-59
2022/01/25 09:59:27;;;;;;;32.78;19.85;;;3.30;99.90;;;;;;7177384;33;20110;-59
2022/01/25 10:03:38;;;;;;;32.70;18.85;;;3.30;99.90;;;;;;7168996;32;20137;-59
2022/01/25 10:07:39;;;;;;;39.35;20.98;;;3.40;99.90;;;;;;7168549;32;20159;-59
2022/01/25 10:11:41;;;;;;;40.63;21.40;;;3.30;99.90;;;;;;7170905;32;20106;-59
2022/01/25 10:15:44;;;;;;;36.35;20.90;;;3.30;99.90;;;;;;7177514;32;20118;-61
2022/01/25 10:19:54;;;;;;;32.92;18.87;;;3.30;99.90;;;;;;7168804;33;20117;-59
2022/01/25 10:24:13;;;;;;;36.33;20.70;;;3.30;99.90;;;;;;7175092;33;20340;-60
2022/01/25 10:28:28;;;;;;;37.72;20.33;;;3.30;99.90;;;;;;7166208;33;20541;-59
2022/01/25 10:32:30;;;;;;;35.83;20.17;;;3.20;99.90;;;;;;7160351;33;20498;-59
2022/01/25 10:36:31;;;;;;;33.05;18.02;;;3.00;99.90;;;;;;7171556;33;20753;-59
2022/01/25 10:40:40;;;;;;;35.15;19.05;;;3.00;99.90;;;;;;7162278;33;20113;-59
2022/01/25 10:44:58;;;;;;;36.65;20.75;;;3.00;99.90;;;;;;7161752;33;20109;-59
2022/01/25 10:49:03;;;;;;;38.85;19.92;;;3.20;99.90;;;;;;7159100;33;20132;-60
2022/01/25 10:53:11;;;;;;;37.40;19.95;;;3.10;99.90;;;;;;7164967;32;20204;-60
2022/01/25 10:57:23;;;;;;;39.95;19.92;;;3.20;99.90;;;;;;7166928;32;20106;-60
2022/01/25 11:01:56;;;;;;;39.92;20.35;;;3.30;99.90;;;;;;7172023;32;20401;-59
2022/01/25 11:06:31;;;;;;;38.60;20.67;;;3.50;99.90;;;;;;7176950;32;20189;-60
2022/01/25 11:10:33;;;;;;;40.75;22.37;;;3.60;99.90;;;;;;7166073;33;20134;-60
2022/01/25 11:14:50;;;;;;;43.78;20.85;;;3.60;99.90;;;;;;7175064;32;20137;-60
2022/01/25 11:18:52;;;;;;;39.33;20.40;;;3.60;99.90;;;;;;7174173;32;20491;-60
2022/01/25 11:22:54;;;;;;;39.95;21.50;;;3.40;99.90;;;;;;7175438;32;20128;-61
2022/01/25 11:26:59;;;;;;;46.28;22.27;;;3.20;99.90;;;;;;7170610;32;20110;-60
2022/01/25 11:31:05;;;;;;;47.22;21.52;;;3.20;99.90;;;;;;7174895;32;20578;-61
2022/01/25 11:35:10;;;;;;;41.78;21.83;;;3.20;99.90;;;;;;7170482;32;20578;-62
2022/01/25 11:39:18;;;;;;;45.10;22.98;;;3.40;99.90;;;;;;7176417;32;20128;-61
2022/01/25 11:43:20;;;;;;;42.53;20.83;;;3.70;99.90;;;;;;7168572;32;20105;-61
2022/01/25 11:47:30;;;;;;;41.17;21.20;;;3.50;99.90;;;;;;7170135;32;20557;-60
2022/01/25 11:51:33;;;;;;;43.83;21.92;;;3.50;99.90;;;;;;7171523;32;20125;-62
2022/01/25 11:55:52;;;;;;;45.80;22.40;;;3.70;99.90;;;;;;7174005;32;20113;-60
2022/01/25 11:59:59;;;;;;;43.30;21.25;;;3.80;99.90;;;;;;7168090;32;20574;-63
2022/01/25 12:04:11;;;;;;;41.92;22.13;;;3.60;99.90;;;;;;7161982;33;20160;-61
2022/01/25 12:08:15;;;;;;;42.42;20.83;;;3.70;99.90;;;;;;7174640;32;20129;-59
2022/01/25 12:12:17;;;;;;;43.45;20.70;;;3.70;99.90;;;;;;7175673;32;20124;-60
2022/01/25 12:16:23;;;;;;;43.28;20.98;;;3.70;99.90;;;;;;7178569;32;20139;-59
2022/01/25 12:20:26;;;;;;;37.55;18.55;;;3.80;99.90;;;;;;7163403;32;20320;-61
2022/01/25 12:24:35;;;;;;;38.78;20.60;;;3.90;99.90;;;;;;7177944;33;20219;-60
2022/01/25 12:28:42;;;;;;;42.03;19.70;;;3.70;99.90;;;;;;7177219;32;20138;-59
2022/01/25 12:32:50;;;;;;;39.90;19.30;;;3.90;99.90;;;;;;7174050;32;20232;-59
2022/01/25 12:36:52;;;;;;;38.95;18.20;;;3.90;99.90;;;;;;7173628;32;20141;-59
2022/01/25 12:41:18;;;;;;;39.72;20.15;;;3.90;99.90;;;;;;7175599;33;20109;-60
2022/01/25 12:45:21;;;;;;;34.90;17.87;;;4.00;99.90;;;;;;7170683;33;20127;-59
2022/01/25 12:49:26;;;;;;;36.50;19.90;;;3.90;99.90;;;;;;7175221;33;20739;-59
2022/01/25 12:53:30;;;;;;;36.90;19.95;;;3.90;99.90;;;;;;7170284;33;20623;-60
2022/01/25 12:57:32;;;;;;;40.83;20.67;;;3.90;99.90;;;;;;7176986;33;20180;-60
2022/01/25 13:01:39;;;;;;;40.17;19.90;;;3.80;99.90;;;;;;7176339;32;20109;-59
2022/01/25 13:05:52;;;;;;;;;;;3.70;99.90;;;;;;7178862;32;20132;-60
2022/01/25 13:09:55;;;;;;;39.50;18.73;;;3.70;99.90;;;;;;7179374;32;20019;-60
2022/01/25 13:14:31;;;;;;;38.42;18.20;;;3.90;99.90;;;;;;7172670;32;20689;-60
2022/01/25 13:18:39;;;;;;;38.10;18.37;;;4.00;99.90;;;;;;7181133;32;20117;-60
2022/01/25 13:22:42;;;;;;;37.17;18.73;;;4.00;99.90;;;;;;7179597;32;20482;-61
2022/01/25 13:27:01;;;;;;;35.15;17.90;;;3.90;99.90;;;;;;7176933;32;20105;-61
2022/01/25 13:31:06;;;;;;;;;;;3.80;99.90;;;;;;7164380;32;20518;-59
2022/01/25 13:35:28;;;;;;;33.30;16.42;;;3.90;99.90;;;;;;7174590;33;20547;-60
2022/01/25 13:39:30;;;;;;;32.38;16.17;;;3.90;99.90;;;;;;7178943;32;20322;-60
2022/01/25 13:47:59;;;;;;;38.58;16.87;;;3.90;99.90;;;;;;7174128;32;20188;-59
2022/01/25 13:52:04;;;;;;;32.33;16.23;;;3.80;99.90;;;;;;7178824;32;21047;-58
2022/01/25 13:56:14;;;;;;;32.95;17.10;;;3.80;99.90;;;;;;7171335;32;20694;-59
2022/01/25 14:00:17;;;;;;;38.72;17.62;;;3.80;99.90;;;;;;7176267;32;20133;-59
2022/01/25 14:04:22;;;;;;;37.72;18.35;;;3.70;99.90;;;;;;7179731;32;20204;-59
2022/01/25 14:08:42;;;;;;;33.63;17.92;;;3.70;99.90;;;;;;7183449;32;20275;-61
2022/01/25 14:21:55;;;;;;;38.33;17.40;;;3.90;99.90;;;;;;7181881;33;20514;-59
2022/01/25 14:26:06;;;;;;;33.88;18.37;;;3.70;99.90;;;;;;7165432;32;20132;-59
2022/01/25 14:30:08;;;;;;;38.97;18.80;;;3.80;99.90;;;;;;7179920;32;20128;-59
2022/01/25 14:34:14;;;;;;;34.30;17.37;;;3.80;99.90;;;;;;7181219;32;20113;-59
2022/01/25 14:38:21;;;;;;;36.33;18.62;;;4.00;99.90;;;;;;7170423;33;20448;-60
2022/01/25 14:42:22;;;;;;;40.30;18.60;;;4.00;99.90;;;;;;7184662;33;20128;-59
2022/01/25 14:46:32;;;;;;;37.42;18.10;;;4.10;99.90;;;;;;7177622;32;20673;-59
2022/01/25 14:50:34;;;;;;;38.92;18.98;;;3.90;99.90;;;;;;7182710;32;20188;-60
2022/01/25 14:54:38;;;;;;;37.20;18.90;;;3.90;99.90;;;;;;7182027;32;20584;-58
2022/01/25 15:02:55;;;;;;;37.33;19.25;;;3.80;99.90;;;;;;7170314;32;20208;-61
2022/01/25 15:06:58;;;;;;;37.75;18.62;;;3.80;99.90;;;;;;7180461;32;20526;-59
2022/01/25 15:11:01;;;;;;;41.78;18.85;;;3.80;99.90;;;;;;7167360;33;20139;-59
2022/01/25 15:15:16;;;;;;;40.88;19.95;;;3.90;99.90;;;;;;7181147;32;20230;-59
2022/01/25 15:19:19;;;;;;;38.75;20.08;;;3.80;99.90;;;;;;7172755;32;20110;-59
2022/01/25 15:23:22;;;;;;;37.28;19.15;;;3.80;99.90;;;;;;7176777;32;20132;-61
2022/01/25 15:27:27;;;;;;;38.67;20.05;;;3.60;99.90;;;;;;7167919;32;20113;-59
2022/01/25 15:31:29;;;;;;;37.50;19.17;;;3.70;99.90;;;;;;7173370;32;20954;-59
2022/01/25 15:35:33;;;;;;;45.65;20.27;;;3.60;99.90;;;;;;7166388;32;20102;-59
2022/01/25 15:39:35;;;;;;;37.88;19.00;;;3.60;99.90;;;;;;7178749;32;20132;-59
2022/01/25 15:43:48;;;;;;;34.80;18.60;;;3.60;99.90;;;;;;7173680;32;20132;-59
2022/01/25 15:47:50;;;;;;;35.80;18.92;;;3.50;99.90;;;;;;7172610;32;20209;-59
2022/01/25 15:51:52;;;;;;;37.75;18.83;;;3.50;99.90;;;;;;7172958;32;20558;-60
2022/01/25 15:55:53;;;;;;;36.13;17.87;;;3.50;99.90;;;;;;7177334;32;20105;-60
2022/01/25 15:59:55;;;;;;;31.05;17.35;;;3.50;99.90;;;;;;7171779;32;20159;-60
2022/01/25 16:03:57;;;;;;;37.17;18.60;;;3.50;99.90;;;;;;7177589;32;20132;-60
2022/01/25 16:08:00;;;;;;;38.78;19.58;;;3.40;99.90;;;;;;7176798;32;20651;-59
2022/01/25 16:12:02;;;;;;;35.42;18.52;;;3.50;99.90;;;;;;7176143;33;20706;-59
2022/01/25 16:16:05;;;;;;;37.33;18.83;;;3.40;99.90;;;;;;7173646;32;20232;-59
2022/01/25 16:20:10;;;;;;;35.00;18.00;;;3.40;99.90;;;;;;7174410;32;20251;-60
2022/01/25 16:24:12;;;;;;;35.40;17.33;;;3.30;99.90;;;;;;7158886;32;20122;-59
2022/01/25 16:28:14;;;;;;;38.72;19.90;;;3.30;99.90;;;;;;7177066;32;22591;-59
2022/01/25 16:32:20;;;;;;;39.55;19.27;;;3.30;99.90;;;;;;7173160;33;20203;-59
2022/01/25 16:36:22;;;;;;;36.85;19.10;;;3.30;99.90;;;;;;7171023;32;20131;-59
2022/01/25 16:40:24;;;;;;;37.55;19.27;;;3.20;99.90;;;;;;7173669;32;20114;-59
2022/01/25 16:44:26;;;;;;;42.62;19.52;;;3.10;99.90;;;;;;7176384;33;20133;-59
2022/01/25 16:48:27;;;;;;;41.67;19.48;;;3.10;99.90;;;;;;7164431;33;20219;-59
2022/01/25 16:52:29;;;;;;;39.35;19.05;;;3.10;99.90;;;;;;7173274;33;20223;-59
2022/01/25 16:56:31;;;;;;;37.47;18.58;;;3.10;99.90;;;;;;7175760;33;20844;-59
2022/01/25 17:00:36;;;;;;;41.90;20.35;;;3.00;99.90;;;;;;7173657;33;20494;-59
2022/01/25 17:04:41;;;;;;;39.97;19.95;;;3.10;99.90;;;;;;7171066;33;20121;-59
2022/01/25 17:08:48;;;;;;;40.88;21.25;;;3.10;99.90;;;;;;7174243;33;20186;-59
2022/01/25 17:12:51;;;;;;;40.92;20.77;;;3.10;99.90;;;;;;7173677;33;20258;-58
2022/01/25 17:16:53;;;;;;;41.67;20.67;;;3.00;99.90;;;;;;7176086;33;20792;-60
2022/01/25 17:20:55;;;;;;;42.05;19.90;;;3.00;99.90;;;;;;7173799;33;20159;-59
2022/01/25 17:24:57;;;;;;;38.92;20.45;;;3.10;99.90;;;;;;7177104;33;20557;-58
2022/01/25 17:28:59;;;;;;;41.92;21.50;;;3.10;99.90;;;;;;7171140;33;20132;-58
2022/01/25 17:33:01;;;;;;;42.42;19.62;;;3.10;99.90;;;;;;7176276;33;20132;-58
2022/01/25 17:37:03;;;;;;;43.78;20.83;;;3.20;99.90;;;;;;7172375;33;20549;-58
2022/01/25 17:41:05;;;;;;;39.45;20.65;;;3.20;99.90;;;;;;7160973;33;20128;-59
2022/01/25 17:45:08;;;;;;;38.72;20.02;;;3.20;99.90;;;;;;7176573;33;20106;-61
2022/01/25 17:49:11;;;;;;;39.17;19.15;;;3.20;99.90;;;;;;7180370;33;20193;-58
2022/01/25 17:53:13;;;;;;;43.20;20.60;;;3.10;99.90;;;;;;7174636;32;20113;-60
2022/01/25 17:57:15;;;;;;;39.50;19.65;;;3.10;99.90;;;;;;7174546;32;20228;-60
2022/01/25 18:01:17;;;;;;;41.08;20.40;;;3.20;99.90;;;;;;7177917;32;20664;-59
2022/01/25 18:05:20;;;;;;;42.08;21.15;;;3.20;99.90;;;;;;7173841;32;20274;-59
2022/01/25 18:09:21;;;;;;;44.95;21.75;;;3.20;99.90;;;;;;7172589;32;20216;-59
2022/01/25 18:13:23;;;;;;;39.85;20.55;;;3.20;99.90;;;;;;7178300;32;20113;-60
2022/01/25 18:17:25;;;;;;;42.90;21.12;;;3.20;99.90;;;;;;7176938;32;20148;-59
2022/01/25 18:21:29;;;;;;;38.97;20.60;;;3.20;99.90;;;;;;7179192;32;20132;-59
2022/01/25 18:29:35;;;;;;;38.03;20.60;;;3.20;99.90;;;;;;7179505;32;20128;-59
2022/01/25 18:33:37;;;;;;;41.22;21.10;;;3.10;99.90;;;;;;7173914;32;20106;-59
2022/01/25 18:37:38;;;;;;;35.83;20.40;;;3.10;99.90;;;;;;7172490;32;20106;-59
2022/01/25 18:41:42;;;;;;;37.72;20.48;;;3.20;99.90;;;;;;7178264;32;20216;-60
2022/01/25 18:45:50;;;;;;;42.55;20.42;;;3.20;99.90;;;;;;7178439;32;20243;-59
2022/01/25 18:49:52;;;;;;;38.75;21.25;;;3.20;99.90;;;;;;7161732;33;20130;-59
2022/01/25 18:53:54;;;;;;;37.00;20.52;;;3.10;99.90;;;;;;7178658;33;20171;-59
2022/01/25 18:57:56;;;;;;;41.03;21.02;;;3.10;99.90;;;;;;7183401;33;20117;-59
2022/01/25 19:02:09;;;;;;;38.28;20.95;;;3.20;99.90;;;;;;7169179;33;20122;-59
2022/01/25 19:06:11;;;;;;;43.95;21.70;;;3.10;99.90;;;;;;7183115;33;20222;-60
2022/01/25 19:10:15;;;;;;;39.40;21.02;;;3.10;99.90;;;;;;7177164;33;20109;-59
2022/01/25 19:14:17;;;;;;;38.95;21.08;;;3.00;99.90;;;;;;7180772;33;20109;-59
2022/01/25 19:18:19;;;;;;;44.28;21.08;;;3.10;99.90;;;;;;7179077;32;20169;-59
2022/01/25 19:22:24;;;;;;;43.67;21.35;;;3.20;99.90;;;;;;7186573;32;20672;-58
2022/01/25 19:26:26;;;;;;;49.03;21.65;;;3.20;99.90;;;;;;7178464;33;20204;-58
2022/01/25 19:30:28;;;;;;;42.10;20.73;;;3.20;99.90;;;;;;7177974;33;20529;-58
2022/01/25 19:34:30;;;;;;;43.35;21.37;;;3.10;99.90;;;;;;7181737;33;20133;-59
2022/01/25 19:38:32;;;;;;;39.30;20.73;;;3.20;99.90;;;;;;7172369;33;20145;-60
2022/01/25 19:42:35;;;;;;;43.30;21.87;;;3.20;99.90;;;;;;7170690;33;20110;-57
2022/01/25 19:46:36;;;;;;;40.08;20.77;;;3.20;99.90;;;;;;7179759;33;20732;-59
2022/01/25 19:50:40;;;;;;;39.35;20.35;;;3.20;99.90;;;;;;7174740;33;20180;-59
2022/01/25 19:54:42;;;;;;;40.55;21.62;;;3.20;99.90;;;;;;7179510;33;20558;-59
2022/01/25 19:58:44;;;;;;;40.35;21.12;;;3.20;99.90;;;;;;7173599;33;20138;-58
2022/01/25 20:02:46;;;;;;;45.58;22.55;;;3.10;99.90;;;;;;7161240;33;20228;-59
2022/01/25 20:06:50;;;;;;;39.72;21.52;;;3.20;99.90;;;;;;7179503;33;20131;-60
2022/01/25 20:10:56;;;;;;;44.08;22.48;;;3.20;99.90;;;;;;7178724;33;20204;-60
2022/01/25 20:14:58;;;;;;;44.88;23.08;;;3.20;99.90;;;;;;7176704;33;20518;-59
2022/01/25 20:19:02;;;;;;;43.45;23.33;;;3.20;99.90;;;;;;7183500;32;20128;-59
2022/01/25 20:27:18;;;;;;;40.92;20.73;;;3.20;99.90;;;;;;7180127;33;20290;-59
2022/01/25 20:31:21;;;;;;;40.20;20.55;;;3.30;99.90;;;;;;7177101;33;20109;-60
2022/01/25 20:35:26;;;;;;;43.42;22.40;;;3.20;99.90;;;;;;7178865;33;20132;-59
2022/01/25 20:39:28;;;;;;;46.50;21.87;;;3.10;99.90;;;;;;7180099;33;20105;-59
2022/01/25 20:43:31;;;;;;;44.92;21.92;;;3.20;99.90;;;;;;7170386;33;20141;-60
2022/01/25 20:47:33;;;;;;;47.00;22.87;;;3.20;99.90;;;;;;7179296;33;20145;-58
2022/01/25 20:51:35;;;;;;;51.67;22.73;;;3.10;99.90;;;;;;7177508;33;20782;-59
2022/01/25 20:55:37;;;;;;;46.35;22.33;;;3.10;99.90;;;;;;7178996;33;20117;-59
2022/01/25 20:59:39;;;;;;;40.30;19.40;;;3.10;99.90;;;;;;7178986;33;20440;-59
2022/01/25 21:04:02;;;;;;;44.08;20.80;;;3.30;99.90;;;;;;7179697;33;20685;-59
2022/01/25 21:08:04;;;;;;;39.40;19.62;;;3.20;99.90;;;;;;7176228;33;20791;-60
2022/01/25 21:12:07;;;;;;;42.40;21.87;;;3.20;99.90;;;;;;7176742;33;20109;-61
2022/01/25 21:16:10;;;;;;;38.97;21.77;;;3.10;99.90;;;;;;7176991;33;20110;-62
2022/01/25 21:20:14;;;;;;;44.80;22.48;;;3.10;99.90;;;;;;7178354;33;20168;-61
2022/01/25 21:24:19;;;;;;;46.80;23.30;;;3.10;99.90;;;;;;7179560;33;20252;-61
2022/01/25 21:28:21;;;;;;;43.20;22.80;;;3.10;99.90;;;;;;7184291;33;20188;-59
2022/01/25 21:32:23;;;;;;;43.75;23.00;;;2.90;99.90;;;;;;7181671;33;20102;-60
2022/01/25 21:36:26;;;;;;;44.25;23.62;;;2.90;99.90;;;;;;7182316;33;20481;-59
2022/01/25 21:40:28;;;;;;;45.72;22.33;;;2.80;99.90;;;;;;7178258;33;20113;-60
2022/01/25 21:44:29;;;;;;;42.62;23.23;;;2.90;99.90;;;;;;7178547;33;20128;-60
2022/01/25 21:48:31;;;;;;;49.22;24.52;;;2.80;99.90;;;;;;7169779;33;20200;-58
2022/01/25 21:52:33;;;;;;;45.58;22.87;;;2.80;99.90;;;;;;7183887;33;20113;-59
2022/01/25 21:56:35;;;;;;;48.90;22.23;;;2.80;99.90;;;;;;7170082;33;20102;-60
2022/01/25 22:00:37;;;;;;;43.42;20.92;;;2.90;99.90;;;;;;7171339;33;20109;-59
2022/01/25 22:04:48;;;;;;;48.67;22.50;;;2.90;99.90;;;;;;7170074;32;20134;-59
2022/01/25 22:08:53;;;;;;;46.55;23.02;;;3.00;99.90;;;;;;7169456;33;20185;-60
2022/01/25 22:13:00;;;;;;;43.90;22.70;;;3.00;99.90;;;;;;7183296;33;20105;-58
2022/01/25 22:17:03;;;;;;;44.50;22.50;;;3.00;99.90;;;;;;7174637;33;20242;-60
2022/01/25 22:21:05;;;;;;;46.20;22.37;;;3.00;99.90;;;;;;7180769;33;20243;-60
2022/01/25 22:25:10;;;;;;;47.40;22.80;;;3.10;99.90;;;;;;7181200;33;20481;-60
2022/01/25 22:29:12;;;;;;;46.05;23.50;;;3.10;99.90;;;;;;7175263;32;20656;-60
2022/01/25 22:33:14;;;;;;;43.25;22.95;;;3.00;99.90;;;;;;7182015;33;20102;-60
2022/01/25 22:37:16;;;;;;;53.30;23.70;;;3.00;99.90;;;;;;7178583;33;20110;-60
2022/01/25 22:41:18;;;;;;;49.47;23.70;;;3.10;99.90;;;;;;7176467;33;20106;-61
2022/01/25 22:45:26;;;;;;;46.90;24.65;;;3.10;99.90;;;;;;7164663;33;20163;-60
2022/01/25 22:49:43;;;;;;;49.00;23.98;;;3.00;99.90;;;;;;7176491;33;20105;-60
2022/01/25 22:53:44;;;;;;;53.13;24.75;;;3.00;99.90;;;;;;7180453;32;20571;-60